sensor_id;sensor_type;location;lat;lon;timestamp;temperature;humidity
1506;DHT22;744;51.436;7.356;2023-05-07T00:02:16;19.20;49.00
1506;DHT22;744;51.436;7.356;2023-05-07T00:04:42;19.50;49.30
1506;DHT22;744;51.436;7.356;2023-05-07T00:07:10;19.30;49.20
1506;DHT22;744;51.436;7.356;2023-05-07T00:09:37;19.50;49.50
1506;DHT22;744;51.436;7.356;2023-05-07T00:12:04;19.40;49.50
1506;DHT22;744;51.436;7.356;2023-05-07T00:14:31;19.20;49.50
1506;DHT22;744;51.436;7.356;2023-05-07T00:16:58;19.20;49.70
1506;DHT22;744;51.436;7.356;2023-05-07T00:19:24;19.10;49.60
1506;DHT22;744;51.436;7.356;2023-05-07T00:21:51;19.10;49.70
1506;DHT22;744;51.436;7.356;2023-05-07T00:24:20;19.10;49.70
1506;DHT22;744;51.436;7.356;2023-05-07T00:26:47;19.20;49.80
1506;DHT22;744;51.436;7.356;2023-05-07T00:29:13;19.20;49.90
1506;DHT22;744;51.436;7.356;2023-05-07T00:31:40;19.20;49.90
1506;DHT22;744;51.436;7.356;2023-05-07T00:34:07;19.20;49.90
1506;DHT22;744;51.436;7.356;2023-05-07T00:36:34;19.10;49.80
1506;DHT22;744;51.436;7.356;2023-05-07T00:39:01;19.10;49.80
1506;DHT22;744;51.436;7.356;2023-05-07T00:41:30;19.10;49.80
1506;DHT22;744;51.436;7.356;2023-05-07T00:43:59;19.10;49.80
1506;DHT22;744;51.436;7.356;2023-05-07T00:46:27;19.20;49.90
1506;DHT22;744;51.436;7.356;2023-05-07T00:48:54;19.00;49.70
1506;DHT22;744;51.436;7.356;2023-05-07T00:51:21;19.00;49.80
1506;DHT22;744;51.436;7.356;2023-05-07T00:53:48;19.00;49.90
1506;DHT22;744;51.436;7.356;2023-05-07T00:56:15;18.90;49.80
1506;DHT22;744;51.436;7.356;2023-05-07T00:58:42;18.90;49.90
1506;DHT22;744;51.436;7.356;2023-05-07T01:01:09;18.90;49.90
1506;DHT22;744;51.436;7.356;2023-05-07T01:03:37;18.90;49.80
1506;DHT22;744;51.436;7.356;2023-05-07T01:06:04;18.90;49.90
1506;DHT22;744;51.436;7.356;2023-05-07T01:08:32;19.10;50.00
1506;DHT22;744;51.436;7.356;2023-05-07T01:11:01;19.00;49.80
1506;DHT22;744;51.436;7.356;2023-05-07T01:13:28;19.00;49.80
1506;DHT22;744;51.436;7.356;2023-05-07T01:15:56;19.10;49.90
1506;DHT22;744;51.436;7.356;2023-05-07T01:18:23;18.90;49.80
1506;DHT22;744;51.436;7.356;2023-05-07T01:20:50;18.90;49.90
1506;DHT22;744;51.436;7.356;2023-05-07T01:23:17;18.90;50.10
1506;DHT22;744;51.436;7.356;2023-05-07T01:25:54;19.00;50.20
1506;DHT22;744;51.436;7.356;2023-05-07T01:28:21;19.00;50.20
1506;DHT22;744;51.436;7.356;2023-05-07T01:30:55;18.90;50.10
1506;DHT22;744;51.436;7.356;2023-05-07T01:33:26;18.90;50.20
1506;DHT22;744;51.436;7.356;2023-05-07T01:35:56;19.00;50.30
1506;DHT22;744;51.436;7.356;2023-05-07T01:38:23;18.90;50.40
1506;DHT22;744;51.436;7.356;2023-05-07T01:40:51;18.90;50.30
1506;DHT22;744;51.436;7.356;2023-05-07T01:43:17;18.70;50.30
1506;DHT22;744;51.436;7.356;2023-05-07T01:45:46;18.80;50.40
1506;DHT22;744;51.436;7.356;2023-05-07T01:48:14;18.80;50.40
1506;DHT22;744;51.436;7.356;2023-05-07T01:50:42;18.60;50.20
1506;DHT22;744;51.436;7.356;2023-05-07T01:53:09;18.80;50.40
1506;DHT22;744;51.436;7.356;2023-05-07T01:55:36;18.80;50.40
1506;DHT22;744;51.436;7.356;2023-05-07T01:58:06;18.90;50.50
1506;DHT22;744;51.436;7.356;2023-05-07T02:00:34;19.10;50.50
1506;DHT22;744;51.436;7.356;2023-05-07T02:03:01;18.90;50.50
1506;DHT22;744;51.436;7.356;2023-05-07T02:05:28;18.90;50.50
1506;DHT22;744;51.436;7.356;2023-05-07T02:07:55;18.80;50.40
1506;DHT22;744;51.436;7.356;2023-05-07T02:10:22;18.80;50.40
1506;DHT22;744;51.436;7.356;2023-05-07T02:12:49;18.80;50.40
1506;DHT22;744;51.436;7.356;2023-05-07T02:15:15;18.80;50.40
1506;DHT22;744;51.436;7.356;2023-05-07T02:20:26;18.80;50.40
1506;DHT22;744;51.436;7.356;2023-05-07T02:22:53;18.70;50.40
1506;DHT22;744;51.436;7.356;2023-05-07T02:25:20;18.90;50.50
1506;DHT22;744;51.436;7.356;2023-05-07T02:27:47;18.60;50.30
1506;DHT22;744;51.436;7.356;2023-05-07T02:30:14;18.60;50.40
1506;DHT22;744;51.436;7.356;2023-05-07T02:32:41;18.50;50.40
1506;DHT22;744;51.436;7.356;2023-05-07T02:35:08;18.50;50.50
1506;DHT22;744;51.436;7.356;2023-05-07T02:37:35;18.50;50.40
1506;DHT22;744;51.436;7.356;2023-05-07T02:40:02;18.50;50.50
1506;DHT22;744;51.436;7.356;2023-05-07T02:42:30;18.50;50.50
1506;DHT22;744;51.436;7.356;2023-05-07T02:44:57;18.50;50.40
1506;DHT22;744;51.436;7.356;2023-05-07T02:47:24;18.40;50.40
1506;DHT22;744;51.436;7.356;2023-05-07T02:49:54;18.20;50.20
1506;DHT22;744;51.436;7.356;2023-05-07T02:52:21;18.50;50.60
1506;DHT22;744;51.436;7.356;2023-05-07T02:54:48;18.60;50.50
1506;DHT22;744;51.436;7.356;2023-05-07T02:57:15;18.50;50.30
1506;DHT22;744;51.436;7.356;2023-05-07T02:59:42;18.50;50.30
1506;DHT22;744;51.436;7.356;2023-05-07T03:02:09;18.40;50.30
1506;DHT22;744;51.436;7.356;2023-05-07T03:04:36;18.40;50.40
1506;DHT22;744;51.436;7.356;2023-05-07T03:07:03;18.50;50.60
1506;DHT22;744;51.436;7.356;2023-05-07T03:09:30;18.30;50.50
1506;DHT22;744;51.436;7.356;2023-05-07T03:11:57;18.30;50.50
1506;DHT22;744;51.436;7.356;2023-05-07T03:14:24;18.20;50.50
1506;DHT22;744;51.436;7.356;2023-05-07T03:16:50;18.20;50.60
1506;DHT22;744;51.436;7.356;2023-05-07T03:19:17;18.20;50.70
1506;DHT22;744;51.436;7.356;2023-05-07T03:21:44;18.20;50.80
1506;DHT22;744;51.436;7.356;2023-05-07T03:28:23;18.40;50.70
1506;DHT22;744;51.436;7.356;2023-05-07T03:30:50;18.20;50.60
1506;DHT22;744;51.436;7.356;2023-05-07T03:33:17;18.00;50.40
1506;DHT22;744;51.436;7.356;2023-05-07T03:35:44;18.30;50.70
1506;DHT22;744;51.436;7.356;2023-05-07T03:38:34;18.30;50.70
1506;DHT22;744;51.436;7.356;2023-05-07T03:41:01;18.10;50.50
1506;DHT22;744;51.436;7.356;2023-05-07T03:43:28;18.30;51.00
1506;DHT22;744;51.436;7.356;2023-05-07T03:45:54;18.10;51.00
1506;DHT22;744;51.436;7.356;2023-05-07T03:48:21;18.20;51.30
1506;DHT22;744;51.436;7.356;2023-05-07T03:50:48;18.30;51.90
1506;DHT22;744;51.436;7.356;2023-05-07T03:53:15;18.30;51.10
1506;DHT22;744;51.436;7.356;2023-05-07T03:55:41;18.40;51.00
1506;DHT22;744;51.436;7.356;2023-05-07T03:58:08;18.40;51.00
1506;DHT22;744;51.436;7.356;2023-05-07T04:00:35;18.40;50.90
1506;DHT22;744;51.436;7.356;2023-05-07T04:03:05;18.40;50.90
1506;DHT22;744;51.436;7.356;2023-05-07T04:05:31;18.30;50.90
1506;DHT22;744;51.436;7.356;2023-05-07T04:07:59;18.30;51.00
1506;DHT22;744;51.436;7.356;2023-05-07T04:10:26;18.20;51.20
1506;DHT22;744;51.436;7.356;2023-05-07T04:12:54;18.10;51.40
1506;DHT22;744;51.436;7.356;2023-05-07T04:15:21;18.10;51.60
1506;DHT22;744;51.436;7.356;2023-05-07T04:17:48;18.00;51.90
1506;DHT22;744;51.436;7.356;2023-05-07T04:20:16;17.90;52.00
1506;DHT22;744;51.436;7.356;2023-05-07T04:22:43;17.90;52.20
1506;DHT22;744;51.436;7.356;2023-05-07T04:25:10;18.20;52.50
1506;DHT22;744;51.436;7.356;2023-05-07T04:27:37;18.20;52.30
1506;DHT22;744;51.436;7.356;2023-05-07T04:30:04;18.40;52.20
1506;DHT22;744;51.436;7.356;2023-05-07T04:32:31;18.30;51.90
1506;DHT22;744;51.436;7.356;2023-05-07T04:34:58;18.30;51.90
1506;DHT22;744;51.436;7.356;2023-05-07T04:37:25;18.30;52.00
1506;DHT22;744;51.436;7.356;2023-05-07T04:39:52;18.40;52.10
1506;DHT22;744;51.436;7.356;2023-05-07T04:42:19;18.30;52.00
1506;DHT22;744;51.436;7.356;2023-05-07T04:44:46;18.30;52.00
1506;DHT22;744;51.436;7.356;2023-05-07T04:47:13;18.30;52.10
1506;DHT22;744;51.436;7.356;2023-05-07T04:49:40;18.30;52.10
1506;DHT22;744;51.436;7.356;2023-05-07T04:52:07;18.30;52.20
1506;DHT22;744;51.436;7.356;2023-05-07T04:54:34;18.40;52.30
1506;DHT22;744;51.436;7.356;2023-05-07T04:57:00;18.40;52.10
1506;DHT22;744;51.436;7.356;2023-05-07T04:59:27;18.30;52.10
1506;DHT22;744;51.436;7.356;2023-05-07T05:01:54;18.20;52.00
1506;DHT22;744;51.436;7.356;2023-05-07T05:04:22;18.50;52.30
1506;DHT22;744;51.436;7.356;2023-05-07T05:06:49;18.70;52.30
1506;DHT22;744;51.436;7.356;2023-05-07T05:09:16;18.60;51.90
1506;DHT22;744;51.436;7.356;2023-05-07T05:11:43;18.70;51.90
1506;DHT22;744;51.436;7.356;2023-05-07T05:14:10;18.70;51.80
1506;DHT22;744;51.436;7.356;2023-05-07T05:16:37;18.60;51.90
1506;DHT22;744;51.436;7.356;2023-05-07T05:19:04;18.40;51.90
1506;DHT22;744;51.436;7.356;2023-05-07T05:21:31;18.60;52.00
1506;DHT22;744;51.436;7.356;2023-05-07T05:23:58;18.60;52.00
1506;DHT22;744;51.436;7.356;2023-05-07T05:26:25;18.80;52.10
1506;DHT22;744;51.436;7.356;2023-05-07T05:28:52;18.70;51.80
1506;DHT22;744;51.436;7.356;2023-05-07T05:31:19;18.70;51.80
1506;DHT22;744;51.436;7.356;2023-05-07T05:33:45;18.60;51.70
1506;DHT22;744;51.436;7.356;2023-05-07T05:36:12;18.70;51.80
1506;DHT22;744;51.436;7.356;2023-05-07T05:38:40;18.70;51.80
1506;DHT22;744;51.436;7.356;2023-05-07T05:41:06;18.80;51.80
1506;DHT22;744;51.436;7.356;2023-05-07T05:43:33;18.80;51.80
1506;DHT22;744;51.436;7.356;2023-05-07T05:46:00;18.80;51.80
1506;DHT22;744;51.436;7.356;2023-05-07T05:48:29;18.80;51.80
1506;DHT22;744;51.436;7.356;2023-05-07T05:50:56;18.90;51.80
1506;DHT22;744;51.436;7.356;2023-05-07T05:53:22;19.10;52.00
1506;DHT22;744;51.436;7.356;2023-05-07T05:55:49;19.00;51.80
1506;DHT22;744;51.436;7.356;2023-05-07T05:58:16;19.10;51.70
1506;DHT22;744;51.436;7.356;2023-05-07T06:00:44;19.20;51.70
1506;DHT22;744;51.436;7.356;2023-05-07T06:03:11;19.20;51.50
1506;DHT22;744;51.436;7.356;2023-05-07T06:05:40;19.30;51.40
1506;DHT22;744;51.436;7.356;2023-05-07T06:08:07;19.30;51.60
1506;DHT22;744;51.436;7.356;2023-05-07T06:10:35;19.30;51.60
1506;DHT22;744;51.436;7.356;2023-05-07T06:13:02;19.10;51.60
1506;DHT22;744;51.436;7.356;2023-05-07T06:15:29;18.80;51.60
1506;DHT22;744;51.436;7.356;2023-05-07T06:17:55;19.00;51.90
1506;DHT22;744;51.436;7.356;2023-05-07T06:20:23;19.00;52.00
1506;DHT22;744;51.436;7.356;2023-05-07T06:22:50;19.00;52.00
1506;DHT22;744;51.436;7.356;2023-05-07T06:25:17;19.10;52.00
1506;DHT22;744;51.436;7.356;2023-05-07T06:27:44;19.10;51.90
1506;DHT22;744;51.436;7.356;2023-05-07T06:30:11;19.10;51.90
1506;DHT22;744;51.436;7.356;2023-05-07T06:32:40;19.20;51.90
1506;DHT22;744;51.436;7.356;2023-05-07T06:35:08;19.40;51.90
1506;DHT22;744;51.436;7.356;2023-05-07T06:37:34;19.40;51.50
1506;DHT22;744;51.436;7.356;2023-05-07T06:40:02;19.50;51.20
1506;DHT22;744;51.436;7.356;2023-05-07T06:42:29;19.60;51.10
1506;DHT22;744;51.436;7.356;2023-05-07T06:44:55;19.70;51.20
1506;DHT22;744;51.436;7.356;2023-05-07T06:47:22;19.70;51.20
1506;DHT22;744;51.436;7.356;2023-05-07T06:49:49;19.60;51.10
1506;DHT22;744;51.436;7.356;2023-05-07T06:52:16;19.60;51.10
1506;DHT22;744;51.436;7.356;2023-05-07T06:54:42;19.50;51.10
1506;DHT22;744;51.436;7.356;2023-05-07T06:57:09;19.60;51.10
1506;DHT22;744;51.436;7.356;2023-05-07T06:59:36;19.60;51.20
1506;DHT22;744;51.436;7.356;2023-05-07T07:02:03;19.60;51.10
1506;DHT22;744;51.436;7.356;2023-05-07T07:04:30;19.70;51.20
1506;DHT22;744;51.436;7.356;2023-05-07T07:06:57;19.70;51.20
1506;DHT22;744;51.436;7.356;2023-05-07T07:09:23;19.80;51.30
1506;DHT22;744;51.436;7.356;2023-05-07T07:11:50;19.70;51.20
1506;DHT22;744;51.436;7.356;2023-05-07T07:14:17;19.70;51.20
1506;DHT22;744;51.436;7.356;2023-05-07T07:16:44;19.80;51.30
1506;DHT22;744;51.436;7.356;2023-05-07T07:19:11;19.70;51.30
1506;DHT22;744;51.436;7.356;2023-05-07T07:21:37;19.70;51.20
1506;DHT22;744;51.436;7.356;2023-05-07T07:24:04;19.70;51.20
1506;DHT22;744;51.436;7.356;2023-05-07T07:26:31;19.90;51.40
1506;DHT22;744;51.436;7.356;2023-05-07T07:28:58;19.90;51.20
1506;DHT22;744;51.436;7.356;2023-05-07T07:31:25;19.90;51.20
1506;DHT22;744;51.436;7.356;2023-05-07T07:33:52;20.00;51.30
1506;DHT22;744;51.436;7.356;2023-05-07T07:36:18;20.00;51.10
1506;DHT22;744;51.436;7.356;2023-05-07T07:38:47;20.10;51.00
1506;DHT22;744;51.436;7.356;2023-05-07T07:41:14;20.10;50.90
1506;DHT22;744;51.436;7.356;2023-05-07T07:43:40;20.10;50.80
1506;DHT22;744;51.436;7.356;2023-05-07T07:46:07;20.10;50.80
1506;DHT22;744;51.436;7.356;2023-05-07T07:48:34;20.10;50.80
1506;DHT22;744;51.436;7.356;2023-05-07T07:51:01;20.10;50.90
1506;DHT22;744;51.436;7.356;2023-05-07T07:53:28;20.10;50.80
1506;DHT22;744;51.436;7.356;2023-05-07T07:55:54;20.10;50.60
1506;DHT22;744;51.436;7.356;2023-05-07T07:58:25;20.30;50.50
1506;DHT22;744;51.436;7.356;2023-05-07T08:00:52;20.30;50.10
1506;DHT22;744;51.436;7.356;2023-05-07T08:03:19;20.20;50.20
1506;DHT22;744;51.436;7.356;2023-05-07T08:05:46;20.10;50.30
1506;DHT22;744;51.436;7.356;2023-05-07T08:08:13;20.10;50.30
1506;DHT22;744;51.436;7.356;2023-05-07T08:10:39;20.20;50.20
1506;DHT22;744;51.436;7.356;2023-05-07T08:13:06;20.30;50.10
1506;DHT22;744;51.436;7.356;2023-05-07T08:15:33;20.40;50.00
1506;DHT22;744;51.436;7.356;2023-05-07T08:18:02;20.50;50.10
1506;DHT22;744;51.436;7.356;2023-05-07T08:20:29;20.50;50.00
1506;DHT22;744;51.436;7.356;2023-05-07T08:22:56;20.50;50.00
1506;DHT22;744;51.436;7.356;2023-05-07T08:25:23;20.60;49.80
1506;DHT22;744;51.436;7.356;2023-05-07T08:27:50;20.60;49.70
1506;DHT22;744;51.436;7.356;2023-05-07T08:30:17;20.60;49.70
1506;DHT22;744;51.436;7.356;2023-05-07T08:32:44;20.70;49.70
1506;DHT22;744;51.436;7.356;2023-05-07T08:35:10;20.80;49.50
1506;DHT22;744;51.436;7.356;2023-05-07T08:37:37;20.90;49.50
1506;DHT22;744;51.436;7.356;2023-05-07T08:40:05;21.10;49.30
1506;DHT22;744;51.436;7.356;2023-05-07T08:42:36;21.10;48.80
1506;DHT22;744;51.436;7.356;2023-05-07T08:45:09;21.00;49.00
1506;DHT22;744;51.436;7.356;2023-05-07T08:47:43;21.00;49.10
1506;DHT22;744;51.436;7.356;2023-05-07T08:50:12;20.90;48.90
1506;DHT22;744;51.436;7.356;2023-05-07T08:52:41;21.00;49.00
1506;DHT22;744;51.436;7.356;2023-05-07T08:55:09;21.10;49.00
1506;DHT22;744;51.436;7.356;2023-05-07T08:57:36;21.20;48.60
1506;DHT22;744;51.436;7.356;2023-05-07T09:00:06;21.40;48.30
1506;DHT22;744;51.436;7.356;2023-05-07T09:02:35;21.60;48.40
1506;DHT22;744;51.436;7.356;2023-05-07T09:05:03;21.70;48.50
1506;DHT22;744;51.436;7.356;2023-05-07T09:07:30;21.60;48.40
1506;DHT22;744;51.436;7.356;2023-05-07T09:09:57;21.70;48.40
1506;DHT22;744;51.436;7.356;2023-05-07T09:12:24;21.70;48.50
1506;DHT22;744;51.436;7.356;2023-05-07T09:14:51;21.70;48.50
1506;DHT22;744;51.436;7.356;2023-05-07T09:17:18;21.80;48.50
1506;DHT22;744;51.436;7.356;2023-05-07T09:19:45;21.90;48.70
1506;DHT22;744;51.436;7.356;2023-05-07T09:22:12;21.80;48.20
1506;DHT22;744;51.436;7.356;2023-05-07T09:24:40;21.90;48.40
1506;DHT22;744;51.436;7.356;2023-05-07T09:27:07;21.80;48.10
1506;DHT22;744;51.436;7.356;2023-05-07T09:29:36;21.70;48.50
1506;DHT22;744;51.436;7.356;2023-05-07T09:32:05;21.70;48.40
1506;DHT22;744;51.436;7.356;2023-05-07T09:34:32;21.70;48.50
1506;DHT22;744;51.436;7.356;2023-05-07T09:37:01;21.70;48.50
1506;DHT22;744;51.436;7.356;2023-05-07T09:39:48;21.80;48.50
1506;DHT22;744;51.436;7.356;2023-05-07T09:42:15;21.80;47.60
1506;DHT22;744;51.436;7.356;2023-05-07T09:44:47;21.80;47.30
1506;DHT22;744;51.436;7.356;2023-05-07T09:47:19;21.90;46.80
1506;DHT22;744;51.436;7.356;2023-05-07T09:49:48;22.00;46.40
1506;DHT22;744;51.436;7.356;2023-05-07T09:52:16;22.20;46.60
1506;DHT22;744;51.436;7.356;2023-05-07T09:54:43;22.20;46.40
1506;DHT22;744;51.436;7.356;2023-05-07T09:57:11;22.10;46.40
1506;DHT22;744;51.436;7.356;2023-05-07T09:59:42;21.90;46.70
1506;DHT22;744;51.436;7.356;2023-05-07T10:02:10;21.80;47.00
1506;DHT22;744;51.436;7.356;2023-05-07T10:04:37;22.00;47.10
1506;DHT22;744;51.436;7.356;2023-05-07T10:07:04;22.10;47.20
1506;DHT22;744;51.436;7.356;2023-05-07T10:09:32;22.20;47.20
1506;DHT22;744;51.436;7.356;2023-05-07T10:11:59;22.30;47.40
1506;DHT22;744;51.436;7.356;2023-05-07T10:14:27;22.20;46.90
1506;DHT22;744;51.436;7.356;2023-05-07T10:16:54;22.20;47.00
1506;DHT22;744;51.436;7.356;2023-05-07T10:19:22;22.20;46.70
1506;DHT22;744;51.436;7.356;2023-05-07T10:21:55;22.20;46.60
1506;DHT22;744;51.436;7.356;2023-05-07T10:24:30;22.20;46.30
1506;DHT22;744;51.436;7.356;2023-05-07T10:26:59;22.10;46.20
1506;DHT22;744;51.436;7.356;2023-05-07T10:34:50;22.30;46.00
1506;DHT22;744;51.436;7.356;2023-05-07T10:37:20;22.50;45.80
1506;DHT22;744;51.436;7.356;2023-05-07T10:39:47;22.60;45.10
1506;DHT22;744;51.436;7.356;2023-05-07T10:42:14;22.70;44.80
1506;DHT22;744;51.436;7.356;2023-05-07T10:44:41;22.70;44.50
1506;DHT22;744;51.436;7.356;2023-05-07T10:47:10;22.70;44.80
1506;DHT22;744;51.436;7.356;2023-05-07T10:52:32;22.70;44.40
1506;DHT22;744;51.436;7.356;2023-05-07T10:57:45;22.90;43.70
1506;DHT22;744;51.436;7.356;2023-05-07T11:03:07;22.80;43.50
1506;DHT22;744;51.436;7.356;2023-05-07T11:05:35;22.70;43.50
1506;DHT22;744;51.436;7.356;2023-05-07T11:08:05;22.70;43.30
1506;DHT22;744;51.436;7.356;2023-05-07T11:10:51;22.90;43.40
1506;DHT22;744;51.436;7.356;2023-05-07T11:13:40;23.00;43.10
1506;DHT22;744;51.436;7.356;2023-05-07T11:16:23;23.00;42.80
1506;DHT22;744;51.436;7.356;2023-05-07T11:18:52;23.10;42.40
1506;DHT22;744;51.436;7.356;2023-05-07T11:21:38;23.10;42.10
1506;DHT22;744;51.436;7.356;2023-05-07T11:24:09;23.10;42.00
1506;DHT22;744;51.436;7.356;2023-05-07T11:26:50;23.10;42.00
1506;DHT22;744;51.436;7.356;2023-05-07T11:29:19;23.10;41.70
1506;DHT22;744;51.436;7.356;2023-05-07T11:31:49;23.00;41.80
1506;DHT22;744;51.436;7.356;2023-05-07T11:34:21;23.00;42.00
1506;DHT22;744;51.436;7.356;2023-05-07T11:36:49;23.10;42.10
1506;DHT22;744;51.436;7.356;2023-05-07T11:41:55;23.20;41.50
1506;DHT22;744;51.436;7.356;2023-05-07T11:44:22;23.20;41.60
1506;DHT22;744;51.436;7.356;2023-05-07T11:46:49;23.30;41.80
1506;DHT22;744;51.436;7.356;2023-05-07T11:49:16;23.30;41.80
1506;DHT22;744;51.436;7.356;2023-05-07T11:51:43;23.30;41.80
1506;DHT22;744;51.436;7.356;2023-05-07T11:54:11;23.30;42.00
1506;DHT22;744;51.436;7.356;2023-05-07T11:56:40;23.20;42.00
1506;DHT22;744;51.436;7.356;2023-05-07T11:59:06;23.20;42.20
1506;DHT22;744;51.436;7.356;2023-05-07T12:01:35;23.30;41.60
1506;DHT22;744;51.436;7.356;2023-05-07T12:04:03;23.40;40.80
1506;DHT22;744;51.436;7.356;2023-05-07T12:06:36;23.50;40.90
1506;DHT22;744;51.436;7.356;2023-05-07T12:09:04;23.50;40.90
1506;DHT22;744;51.436;7.356;2023-05-07T12:11:33;23.60;41.00
1506;DHT22;744;51.436;7.356;2023-05-07T12:14:00;23.50;41.00
1506;DHT22;744;51.436;7.356;2023-05-07T12:16:27;23.40;41.50
1506;DHT22;744;51.436;7.356;2023-05-07T12:18:55;23.30;41.80
1506;DHT22;744;51.436;7.356;2023-05-07T12:21:23;23.40;41.90
1506;DHT22;744;51.436;7.356;2023-05-07T12:23:50;23.30;41.80
1506;DHT22;744;51.436;7.356;2023-05-07T12:26:19;23.40;41.80
1506;DHT22;744;51.436;7.356;2023-05-07T12:28:47;23.50;41.70
1506;DHT22;744;51.436;7.356;2023-05-07T12:31:14;23.50;41.50
1506;DHT22;744;51.436;7.356;2023-05-07T12:33:45;23.60;41.70
1506;DHT22;744;51.436;7.356;2023-05-07T12:36:13;23.60;41.60
1506;DHT22;744;51.436;7.356;2023-05-07T12:38:40;23.60;41.30
1506;DHT22;744;51.436;7.356;2023-05-07T12:41:10;23.60;41.00
1506;DHT22;744;51.436;7.356;2023-05-07T12:43:37;23.60;41.00
1506;DHT22;744;51.436;7.356;2023-05-07T12:46:07;23.60;41.00
1506;DHT22;744;51.436;7.356;2023-05-07T12:48:37;23.60;41.00
1506;DHT22;744;51.436;7.356;2023-05-07T12:51:05;23.60;41.00
1506;DHT22;744;51.436;7.356;2023-05-07T12:53:32;23.60;41.00
1506;DHT22;744;51.436;7.356;2023-05-07T12:55:59;23.60;41.00
1506;DHT22;744;51.436;7.356;2023-05-07T12:58:31;23.60;41.00
1506;DHT22;744;51.436;7.356;2023-05-07T13:01:01;23.60;41.00
1506;DHT22;744;51.436;7.356;2023-05-07T13:03:32;23.50;40.90
1506;DHT22;744;51.436;7.356;2023-05-07T13:06:08;23.60;41.00
1506;DHT22;744;51.436;7.356;2023-05-07T13:08:41;23.60;41.00
1506;DHT22;744;51.436;7.356;2023-05-07T13:11:10;23.60;41.00
1506;DHT22;744;51.436;7.356;2023-05-07T13:13:39;23.60;41.00
1506;DHT22;744;51.436;7.356;2023-05-07T13:16:08;23.70;41.00
1506;DHT22;744;51.436;7.356;2023-05-07T13:18:35;23.60;41.00
1506;DHT22;744;51.436;7.356;2023-05-07T13:21:02;23.50;40.90
1506;DHT22;744;51.436;7.356;2023-05-07T13:23:29;23.50;40.90
1506;DHT22;744;51.436;7.356;2023-05-07T13:25:56;23.50;40.90
1506;DHT22;744;51.436;7.356;2023-05-07T13:28:26;23.50;40.90
1506;DHT22;744;51.436;7.356;2023-05-07T13:30:53;23.50;40.90
1506;DHT22;744;51.436;7.356;2023-05-07T13:33:21;23.40;40.80
1506;DHT22;744;51.436;7.356;2023-05-07T13:35:48;23.40;40.80
1506;DHT22;744;51.436;7.356;2023-05-07T13:38:15;23.40;40.80
1506;DHT22;744;51.436;7.356;2023-05-07T13:40:42;23.40;40.80
1506;DHT22;744;51.436;7.356;2023-05-07T13:43:09;23.40;41.00
1506;DHT22;744;51.436;7.356;2023-05-07T13:45:37;23.30;41.30
1506;DHT22;744;51.436;7.356;2023-05-07T13:48:04;23.30;41.20
1506;DHT22;744;51.436;7.356;2023-05-07T13:50:31;23.30;41.30
1506;DHT22;744;51.436;7.356;2023-05-07T13:52:58;23.30;41.30
1506;DHT22;744;51.436;7.356;2023-05-07T13:55:25;23.30;41.50
1506;DHT22;744;51.436;7.356;2023-05-07T13:58:02;23.20;41.40
1506;DHT22;744;51.436;7.356;2023-05-07T14:00:32;23.20;41.50
1506;DHT22;744;51.436;7.356;2023-05-07T14:03:00;23.10;41.50
1506;DHT22;744;51.436;7.356;2023-05-07T14:05:27;23.00;41.60
1506;DHT22;744;51.436;7.356;2023-05-07T14:07:56;23.00;42.30
1506;DHT22;744;51.436;7.356;2023-05-07T14:10:24;23.00;43.20
1506;DHT22;744;51.436;7.356;2023-05-07T14:12:50;23.00;43.70
1506;DHT22;744;51.436;7.356;2023-05-07T14:15:19;22.90;44.00
1506;DHT22;744;51.436;7.356;2023-05-07T14:17:46;22.90;44.20
1506;DHT22;744;51.436;7.356;2023-05-07T14:20:13;22.90;44.50
1506;DHT22;744;51.436;7.356;2023-05-07T14:22:40;22.90;44.90
1506;DHT22;744;51.436;7.356;2023-05-07T14:25:08;22.80;44.90
1506;DHT22;744;51.436;7.356;2023-05-07T14:27:36;22.70;45.20
1506;DHT22;744;51.436;7.356;2023-05-07T14:30:03;22.70;45.60
1506;DHT22;744;51.436;7.356;2023-05-07T14:32:30;22.70;45.80
1506;DHT22;744;51.436;7.356;2023-05-07T14:34:57;22.70;45.90
1506;DHT22;744;51.436;7.356;2023-05-07T14:37:24;22.80;46.10
1506;DHT22;744;51.436;7.356;2023-05-07T14:39:50;22.70;46.30
1506;DHT22;744;51.436;7.356;2023-05-07T14:42:17;22.70;46.70
1506;DHT22;744;51.436;7.356;2023-05-07T14:44:44;22.70;47.00
1506;DHT22;744;51.436;7.356;2023-05-07T14:47:12;22.80;47.70
1506;DHT22;744;51.436;7.356;2023-05-07T14:49:39;22.80;48.40
1506;DHT22;744;51.436;7.356;2023-05-07T14:52:07;22.80;48.90
1506;DHT22;744;51.436;7.356;2023-05-07T14:54:37;22.80;49.40
1506;DHT22;744;51.436;7.356;2023-05-07T14:57:05;22.80;49.40
1506;DHT22;744;51.436;7.356;2023-05-07T14:59:32;22.70;49.40
1506;DHT22;744;51.436;7.356;2023-05-07T15:01:59;22.70;49.40
1506;DHT22;744;51.436;7.356;2023-05-07T15:04:30;22.60;49.30
1506;DHT22;744;51.436;7.356;2023-05-07T15:06:56;22.60;49.30
1506;DHT22;744;51.436;7.356;2023-05-07T15:09:23;22.60;49.30
1506;DHT22;744;51.436;7.356;2023-05-07T15:11:50;22.60;49.20
1506;DHT22;744;51.436;7.356;2023-05-07T15:14:17;22.60;49.00
1506;DHT22;744;51.436;7.356;2023-05-07T15:16:44;22.60;49.30
1506;DHT22;744;51.436;7.356;2023-05-07T15:19:12;22.60;49.30
1506;DHT22;744;51.436;7.356;2023-05-07T15:21:41;22.60;49.30
1506;DHT22;744;51.436;7.356;2023-05-07T15:24:08;22.60;49.30
1506;DHT22;744;51.436;7.356;2023-05-07T15:26:36;22.60;49.30
1506;DHT22;744;51.436;7.356;2023-05-07T15:29:02;22.60;49.30
1506;DHT22;744;51.436;7.356;2023-05-07T15:31:34;22.50;49.20
1506;DHT22;744;51.436;7.356;2023-05-07T15:34:01;22.50;49.20
1506;DHT22;744;51.436;7.356;2023-05-07T15:36:28;22.50;49.20
1506;DHT22;744;51.436;7.356;2023-05-07T15:38:55;22.50;49.20
1506;DHT22;744;51.436;7.356;2023-05-07T15:41:22;22.50;49.20
1506;DHT22;744;51.436;7.356;2023-05-07T15:43:51;22.50;49.20
1506;DHT22;744;51.436;7.356;2023-05-07T15:46:20;22.50;49.20
1506;DHT22;744;51.436;7.356;2023-05-07T15:48:47;22.60;49.30
1506;DHT22;744;51.436;7.356;2023-05-07T15:51:15;22.50;49.20
1506;DHT22;744;51.436;7.356;2023-05-07T15:53:41;22.50;49.20
1506;DHT22;744;51.436;7.356;2023-05-07T15:56:08;22.60;49.30
1506;DHT22;744;51.436;7.356;2023-05-07T15:58:36;22.60;49.30
1506;DHT22;744;51.436;7.356;2023-05-07T16:01:03;22.70;49.30
1506;DHT22;744;51.436;7.356;2023-05-07T16:03:30;22.70;49.40
1506;DHT22;744;51.436;7.356;2023-05-07T16:05:57;22.70;48.70
1506;DHT22;744;51.436;7.356;2023-05-07T16:08:26;22.70;48.60
1506;DHT22;744;51.436;7.356;2023-05-07T16:10:53;22.70;48.50
1506;DHT22;744;51.436;7.356;2023-05-07T16:13:20;22.70;48.20
1506;DHT22;744;51.436;7.356;2023-05-07T16:15:55;22.80;48.30
1506;DHT22;744;51.436;7.356;2023-05-07T16:18:23;22.80;48.30
1506;DHT22;744;51.436;7.356;2023-05-07T16:20:50;22.70;48.40
1506;DHT22;744;51.436;7.356;2023-05-07T16:23:17;22.70;48.50
1506;DHT22;744;51.436;7.356;2023-05-07T16:25:44;22.70;48.30
1506;DHT22;744;51.436;7.356;2023-05-07T16:28:12;22.70;48.30
1506;DHT22;744;51.436;7.356;2023-05-07T16:30:41;22.70;48.30
1506;DHT22;744;51.436;7.356;2023-05-07T16:33:08;22.70;48.20
1506;DHT22;744;51.436;7.356;2023-05-07T16:35:35;22.80;48.30
1506;DHT22;744;51.436;7.356;2023-05-07T16:38:01;22.70;48.30
1506;DHT22;744;51.436;7.356;2023-05-07T16:40:37;22.70;48.10
1506;DHT22;744;51.436;7.356;2023-05-07T16:43:04;22.70;48.20
1506;DHT22;744;51.436;7.356;2023-05-07T16:45:31;22.80;48.50